createdAt,value
2019-02-02T00:01:10.732Z,41.97
2019-02-02T00:03:38.026Z,38.40
2019-02-02T00:06:05.272Z,47.53
2019-02-02T00:08:32.552Z,37.77
2019-02-02T00:10:59.792Z,38.27
2019-02-02T00:13:27.100Z,37.40
2019-02-02T00:15:54.330Z,40.87
2019-02-02T00:18:22.907Z,37.13
2019-02-02T00:20:50.040Z,35.00
2019-02-02T00:23:17.386Z,37.67
2019-02-02T00:25:44.881Z,41.23
2019-02-02T00:28:12.138Z,37.47
2019-02-02T00:30:39.374Z,40.43
2019-02-02T00:33:06.655Z,34.40
2019-02-02T00:35:33.849Z,37.10
2019-02-02T00:38:01.102Z,42.90
2019-02-02T00:40:28.392Z,36.93
2019-02-02T00:42:55.628Z,36.03
2019-02-02T00:45:22.872Z,38.53
2019-02-02T00:47:50.448Z,33.57
2019-02-02T00:50:17.972Z,36.87
2019-02-02T00:52:45.210Z,35.93
2019-02-02T00:55:12.786Z,33.47
2019-02-02T00:57:40.157Z,32.17
2019-02-02T01:00:09.764Z,33.77
2019-02-02T01:02:37.301Z,35.30
2019-02-02T01:05:05.417Z,34.80
2019-02-02T01:07:32.707Z,34.03
2019-02-02T01:09:59.854Z,34.20
2019-02-02T01:12:27.127Z,35.50
2019-02-02T01:14:54.672Z,33.47
2019-02-02T01:17:21.928Z,33.37
2019-02-02T01:19:49.105Z,35.57
2019-02-02T01:22:16.398Z,38.80
2019-02-02T01:24:43.846Z,33.93
2019-02-02T01:27:11.104Z,33.70
2019-02-02T01:29:38.331Z,34.40
2019-02-02T01:32:05.605Z,38.20
2019-02-02T01:34:32.867Z,34.13
2019-02-02T01:37:00.100Z,33.80
2019-02-02T01:39:27.374Z,34.37
2019-02-02T01:41:54.632Z,31.20
2019-02-02T01:44:21.859Z,34.13
2019-02-02T01:46:49.120Z,34.13
2019-02-02T01:49:16.358Z,38.17
2019-02-02T01:51:43.613Z,33.80
2019-02-02T01:54:10.869Z,34.00
2019-02-02T01:56:38.153Z,33.60
2019-02-02T01:59:05.399Z,35.67
2019-02-02T02:01:32.648Z,32.60
2019-02-02T02:03:59.903Z,37.40
2019-02-02T02:06:27.177Z,29.87
2019-02-02T02:08:54.419Z,38.10
2019-02-02T02:11:21.594Z,31.03
2019-02-02T02:13:48.831Z,33.90
2019-02-02T02:16:15.967Z,34.27
2019-02-02T02:18:43.148Z,31.90
2019-02-02T02:21:10.375Z,30.90
2019-02-02T02:23:37.712Z,32.23
2019-02-02T02:26:04.922Z,30.70
2019-02-02T02:28:32.092Z,31.73
2019-02-02T02:30:59.242Z,33.93
2019-02-02T02:33:26.478Z,29.67
2019-02-02T02:35:53.766Z,31.53
2019-02-02T02:38:21.015Z,33.90
2019-02-02T02:40:48.293Z,35.23
2019-02-02T02:43:15.524Z,31.63
2019-02-02T02:45:42.821Z,30.20
2019-02-02T02:48:10.051Z,31.33
2019-02-02T02:50:37.307Z,29.60
2019-02-02T02:53:04.475Z,25.70
2019-02-02T02:55:31.715Z,29.83
2019-02-02T02:57:58.968Z,29.17
2019-02-02T03:00:26.426Z,35.03
2019-02-02T03:02:53.674Z,30.57
2019-02-02T03:05:21.316Z,30.70
2019-02-02T03:07:49.526Z,31.67
2019-02-02T03:10:17.605Z,32.13
2019-02-02T03:12:44.859Z,32.00
2019-02-02T03:15:12.903Z,31.27
2019-02-02T03:17:40.267Z,29.00
2019-02-02T03:20:08.129Z,28.73
2019-02-02T03:22:35.419Z,30.03
2019-02-02T03:25:02.974Z,28.90
2019-02-02T03:27:30.213Z,28.87
2019-02-02T03:29:57.461Z,34.20
2019-02-02T03:32:24.724Z,27.23
2019-02-02T03:34:51.885Z,27.50
2019-02-02T03:37:19.147Z,28.60
2019-02-02T03:39:46.592Z,26.37
2019-02-02T03:42:13.949Z,26.03
2019-02-02T03:44:41.193Z,30.20
2019-02-02T03:47:08.374Z,28.70
2019-02-02T03:49:35.613Z,30.63
2019-02-02T03:52:02.827Z,28.73
2019-02-02T03:54:30.067Z,29.13
2019-02-02T03:56:57.312Z,26.80
2019-02-02T03:59:24.586Z,22.80
2019-02-02T04:01:51.967Z,29.33
2019-02-02T04:04:19.326Z,27.97
2019-02-02T04:06:46.582Z,26.50
2019-02-02T04:09:13.863Z,26.37
2019-02-02T04:11:43.379Z,30.10
2019-02-02T04:14:10.170Z,28.17
2019-02-02T04:16:37.420Z,26.57
2019-02-02T04:19:04.978Z,25.83
2019-02-02T04:21:32.232Z,25.47
2019-02-02T04:23:59.546Z,28.03
2019-02-02T04:26:26.907Z,30.63
2019-02-02T04:28:54.152Z,28.33
2019-02-02T04:31:21.398Z,24.07
2019-02-02T04:33:48.669Z,24.60
2019-02-02T04:36:15.932Z,22.77
2019-02-02T04:38:43.169Z,26.07
2019-02-02T04:41:10.405Z,25.83
2019-02-02T04:43:37.673Z,25.07
2019-02-02T04:46:04.925Z,24.43
2019-02-02T04:48:32.608Z,25.97
2019-02-02T04:50:59.845Z,26.57
2019-02-02T04:53:27.118Z,27.33
2019-02-02T04:55:54.357Z,25.50
2019-02-02T04:58:21.483Z,28.20
2019-02-02T05:00:48.745Z,25.73
2019-02-02T05:03:16.019Z,29.20
2019-02-02T05:05:43.171Z,29.13
2019-02-02T05:08:10.444Z,30.83
2019-02-02T05:10:37.706Z,29.87
2019-02-02T05:13:04.832Z,31.53
2019-02-02T05:15:35.142Z,26.97
2019-02-02T05:18:02.366Z,24.73
2019-02-02T05:20:29.624Z,26.40
2019-02-02T05:22:56.791Z,23.23
2019-02-02T05:25:24.042Z,30.03
2019-02-02T05:27:51.328Z,26.60
2019-02-02T05:30:23.850Z,30.17
2019-02-02T05:32:51.066Z,28.57
2019-02-02T05:35:18.170Z,25.23
2019-02-02T05:37:45.325Z,26.93
2019-02-02T05:40:13.861Z,25.17
2019-02-02T05:42:41.117Z,24.13
2019-02-02T05:45:09.937Z,28.03
2019-02-02T05:47:37.110Z,23.93
2019-02-02T05:50:05.684Z,27.40
2019-02-02T05:52:32.959Z,28.60
2019-02-02T05:55:00.338Z,28.23
2019-02-02T05:57:27.681Z,30.27
2019-02-02T05:59:54.974Z,30.57
2019-02-02T06:02:22.295Z,26.17
2019-02-02T06:04:49.513Z,33.63
2019-02-02T06:07:16.768Z,32.30
2019-02-02T06:09:43.968Z,39.03
2019-02-02T06:12:11.254Z,39.27
2019-02-02T06:14:38.682Z,40.13
2019-02-02T06:17:05.855Z,40.00
2019-02-02T06:19:33.020Z,44.97
2019-02-02T06:22:00.321Z,51.23
2019-02-02T06:24:27.453Z,49.87
2019-02-02T06:26:54.698Z,47.20
2019-02-02T06:29:21.946Z,46.50
2019-02-02T06:31:49.182Z,41.97
2019-02-02T06:34:16.447Z,51.90
2019-02-02T06:36:43.606Z,43.10
2019-02-02T06:39:10.916Z,44.50
2019-02-02T06:41:38.143Z,43.30
2019-02-02T06:44:05.641Z,43.10
2019-02-02T06:46:43.019Z,46.57
2019-02-02T06:49:01.927Z,42.47
2019-02-02T06:51:29.158Z,40.30
2019-02-02T06:53:56.418Z,36.33
2019-02-02T06:56:23.647Z,43.50
2019-02-02T06:58:50.906Z,43.87
2019-02-02T07:01:18.193Z,37.27
2019-02-02T07:03:45.426Z,42.27
2019-02-02T07:06:12.732Z,39.53
2019-02-02T07:08:40.008Z,41.10
2019-02-02T07:11:07.258Z,43.27
2019-02-02T07:13:36.098Z,42.30
2019-02-02T07:16:03.605Z,40.33
2019-02-02T07:18:30.851Z,40.30
2019-02-02T07:20:58.104Z,34.10
2019-02-02T07:23:25.381Z,41.17
2019-02-02T07:25:52.601Z,35.10
2019-02-02T07:28:19.768Z,37.77
2019-02-02T07:30:47.010Z,37.20
2019-02-02T07:33:14.276Z,36.03
2019-02-02T07:35:41.507Z,34.63
2019-02-02T07:38:08.761Z,36.13
2019-02-02T07:40:36.062Z,36.30
2019-02-02T07:43:03.521Z,42.83
2019-02-02T07:45:30.930Z,32.93
2019-02-02T07:47:58.112Z,34.30
2019-02-02T07:50:25.277Z,31.20
2019-02-02T07:52:52.574Z,31.10
2019-02-02T07:55:19.824Z,32.40
2019-02-02T07:57:47.088Z,25.83
2019-02-02T08:00:17.132Z,28.30
2019-02-02T08:02:44.258Z,26.50
2019-02-02T08:05:11.515Z,29.47
2019-02-02T08:07:38.757Z,33.20
2019-02-02T08:10:07.833Z,34.27
2019-02-02T08:12:35.071Z,40.47
2019-02-02T08:15:02.528Z,41.63
2019-02-02T08:17:32.327Z,35.40
2019-02-02T08:19:59.053Z,34.43
2019-02-02T08:22:26.194Z,35.67
2019-02-02T08:24:53.465Z,36.70
2019-02-02T08:27:20.717Z,36.77
2019-02-02T08:29:47.973Z,29.27
2019-02-02T08:32:15.211Z,31.40
2019-02-02T08:34:42.374Z,34.73
2019-02-02T08:37:09.625Z,24.97
2019-02-02T08:39:36.857Z,23.50
2019-02-02T08:42:04.137Z,25.33
2019-02-02T08:44:31.376Z,19.73
2019-02-02T08:46:58.685Z,20.03
2019-02-02T08:49:25.858Z,18.03
2019-02-02T08:51:53.111Z,16.03
2019-02-02T08:54:20.321Z,13.70
2019-02-02T08:56:47.522Z,15.60
2019-02-02T08:59:14.750Z,16.47
2019-02-02T09:01:42.865Z,15.73
2019-02-02T09:04:10.127Z,15.27
2019-02-02T09:06:38.995Z,15.10
2019-02-02T09:09:08.134Z,17.73
2019-02-02T09:11:35.394Z,19.43
2019-02-02T09:14:02.702Z,18.83
2019-02-02T09:16:29.864Z,19.33
2019-02-02T09:18:57.097Z,17.30
2019-02-02T09:21:24.350Z,15.87
2019-02-02T09:23:51.602Z,16.00
2019-02-02T09:26:18.887Z,18.97
2019-02-02T09:28:46.145Z,15.83
2019-02-02T09:31:15.874Z,11.57
2019-02-02T09:33:42.602Z,11.80
2019-02-02T09:36:09.979Z,11.90
2019-02-02T09:38:37.275Z,9.33
2019-02-02T09:41:04.533Z,7.37
2019-02-02T09:43:31.790Z,10.20
2019-02-02T09:45:58.962Z,5.60
2019-02-02T09:48:26.255Z,5.93
2019-02-02T09:50:53.511Z,6.47
2019-02-02T09:53:20.750Z,6.73
2019-02-02T09:55:48.115Z,5.13
2019-02-02T09:58:15.491Z,6.33
2019-02-02T10:00:42.743Z,4.87
2019-02-02T10:03:10.035Z,28.63
2019-02-02T10:05:37.176Z,8.83
2019-02-02T10:08:04.475Z,9.63
2019-02-02T10:10:32.860Z,8.20
2019-02-02T10:13:00.222Z,8.93
2019-02-02T10:15:27.470Z,5.33
2019-02-02T10:17:54.644Z,10.93
2019-02-02T10:20:23.544Z,6.67
2019-02-02T10:22:50.915Z,3.30
2019-02-02T10:25:23.185Z,7.93
2019-02-02T10:27:50.450Z,6.87
2019-02-02T10:30:22.740Z,15.57
2019-02-02T10:32:49.618Z,4.30
2019-02-02T10:35:16.748Z,9.50
2019-02-02T10:37:43.882Z,4.90
2019-02-02T10:40:11.467Z,13.07
2019-02-02T10:42:38.720Z,3.00
2019-02-02T10:45:06.982Z,9.30
2019-02-02T10:47:34.235Z,2.60
2019-02-02T10:50:01.495Z,4.60
2019-02-02T10:52:28.877Z,4.90
2019-02-02T10:54:56.174Z,4.80
2019-02-02T10:57:23.469Z,3.67
2019-02-02T10:59:50.804Z,4.97
2019-02-02T11:02:18.169Z,3.93
2019-02-02T11:04:45.471Z,3.87
2019-02-02T11:07:12.927Z,3.87
2019-02-02T11:09:40.298Z,7.63
2019-02-02T11:12:07.433Z,6.37
2019-02-02T11:14:34.736Z,5.53
2019-02-02T11:17:02.120Z,4.27
2019-02-02T11:19:29.437Z,4.33
2019-02-02T11:21:56.836Z,5.90
2019-02-02T11:24:24.129Z,6.60
2019-02-02T11:26:51.403Z,3.80
2019-02-02T11:29:18.699Z,5.27
2019-02-02T11:31:45.889Z,4.90
2019-02-02T11:34:13.187Z,5.60
2019-02-02T11:36:40.414Z,4.33
2019-02-02T11:39:08.482Z,4.37
2019-02-02T11:41:35.759Z,4.00
2019-02-02T11:44:03.146Z,5.00
2019-02-02T11:46:30.409Z,5.43
2019-02-02T11:48:57.685Z,7.47
2019-02-02T11:51:24.914Z,8.23
2019-02-02T11:53:52.235Z,5.07
2019-02-02T11:56:19.572Z,6.87
2019-02-02T11:58:46.865Z,9.43
2019-02-02T12:01:14.105Z,5.37
2019-02-02T12:03:41.320Z,8.40
2019-02-02T12:06:08.592Z,5.23
2019-02-02T12:08:35.892Z,4.87
2019-02-02T12:11:03.317Z,5.90
2019-02-02T12:13:30.583Z,5.57
2019-02-02T12:15:57.811Z,4.53
2019-02-02T12:18:25.013Z,7.10
2019-02-02T12:20:52.611Z,7.17
2019-02-02T12:23:19.935Z,6.90
2019-02-02T12:25:47.238Z,5.73
2019-02-02T12:28:14.476Z,6.20
2019-02-02T12:30:41.770Z,5.43
2019-02-02T12:33:08.936Z,5.73
2019-02-02T12:35:36.218Z,5.63
2019-02-02T12:38:03.674Z,4.23
2019-02-02T12:40:31.244Z,5.10
2019-02-02T12:42:58.594Z,4.97
2019-02-02T12:45:31.647Z,6.10
2019-02-02T12:47:58.980Z,5.07
2019-02-02T12:50:26.348Z,4.20
2019-02-02T12:52:53.662Z,5.20
2019-02-02T12:55:20.937Z,5.80
2019-02-02T12:57:48.248Z,5.67
2019-02-02T13:00:16.722Z,3.77
2019-02-02T13:02:44.127Z,5.23
2019-02-02T13:05:12.113Z,4.40
2019-02-02T13:07:39.424Z,5.33
2019-02-02T13:10:09.274Z,6.90
2019-02-02T13:12:36.695Z,5.97
2019-02-02T13:15:05.692Z,5.80
2019-02-02T13:17:33.251Z,6.10
2019-02-02T13:20:00.623Z,3.77
2019-02-02T13:22:27.930Z,7.50
2019-02-02T13:24:55.316Z,6.43
2019-02-02T13:27:22.595Z,6.70
2019-02-02T13:29:52.100Z,5.90
2019-02-02T13:32:19.204Z,6.00
2019-02-02T13:34:46.696Z,5.63
2019-02-02T13:37:14.198Z,3.67
2019-02-02T13:39:41.547Z,7.20
2019-02-02T13:42:08.938Z,7.17
2019-02-02T13:44:36.447Z,5.13
2019-02-02T13:47:03.877Z,4.27
2019-02-02T13:49:31.252Z,6.97
2019-02-02T13:51:58.648Z,5.53
2019-02-02T13:54:26.052Z,7.77
2019-02-02T13:56:53.344Z,6.33
2019-02-02T13:59:20.638Z,7.30
2019-02-02T14:01:47.828Z,5.67
2019-02-02T14:04:15.121Z,6.73
2019-02-02T14:06:42.459Z,6.40
2019-02-02T14:09:09.779Z,6.73
2019-02-02T14:11:37.140Z,4.90
2019-02-02T14:14:04.464Z,6.43
2019-02-02T14:16:31.759Z,5.90
2019-02-02T14:18:59.061Z,6.57
2019-02-02T14:21:26.436Z,5.23
2019-02-02T14:23:53.780Z,4.63
2019-02-02T14:26:21.125Z,4.27
2019-02-02T14:28:48.474Z,4.87
2019-02-02T14:31:15.894Z,5.73
2019-02-02T14:33:43.190Z,6.70
2019-02-02T14:36:10.610Z,4.40
2019-02-02T14:38:37.977Z,4.93
2019-02-02T14:41:05.226Z,5.47
2019-02-02T14:43:32.519Z,4.63
2019-02-02T14:45:59.779Z,7.03
2019-02-02T14:48:26.956Z,4.00
2019-02-02T14:50:54.264Z,4.37
2019-02-02T14:53:21.484Z,5.47
2019-02-02T14:55:48.780Z,9.17
2019-02-02T14:58:16.192Z,11.37
2019-02-02T15:00:43.404Z,9.43
2019-02-02T15:03:10.725Z,9.37
2019-02-02T15:05:43.193Z,8.87
2019-02-02T15:08:07.245Z,6.50
2019-02-02T15:10:34.488Z,6.57
2019-02-02T15:13:01.744Z,12.73
2019-02-02T15:15:29.027Z,8.43
2019-02-02T15:17:56.354Z,9.47
2019-02-02T15:20:28.877Z,6.90
2019-02-02T15:22:56.178Z,7.73
2019-02-02T15:25:23.414Z,7.30
2019-02-02T15:27:50.701Z,7.13
2019-02-02T15:30:18.522Z,10.00
2019-02-02T15:32:45.827Z,7.53
2019-02-02T15:35:14.232Z,10.57
2019-02-02T15:37:41.636Z,9.53
2019-02-02T15:40:09.895Z,10.37
2019-02-02T15:42:37.156Z,13.50
2019-02-02T15:45:05.517Z,10.00
2019-02-02T15:47:34.309Z,10.50
2019-02-02T15:50:01.727Z,9.73
2019-02-02T15:52:28.989Z,8.57
2019-02-02T15:54:56.259Z,10.13
2019-02-02T15:57:23.505Z,9.90
2019-02-02T15:59:50.745Z,13.10
2019-02-02T16:02:18.031Z,12.13
2019-02-02T16:04:45.275Z,12.60
2019-02-02T16:07:12.529Z,12.27
2019-02-02T16:09:39.674Z,9.83
2019-02-02T16:12:06.939Z,8.53
2019-02-02T16:14:34.242Z,8.93
2019-02-02T16:17:01.423Z,10.40
2019-02-02T16:19:28.707Z,10.20
2019-02-02T16:21:55.976Z,8.73
2019-02-02T16:24:23.231Z,7.90
2019-02-02T16:26:50.511Z,8.90
2019-02-02T16:29:17.779Z,8.27
2019-02-02T16:31:45.152Z,9.13
2019-02-02T16:34:12.431Z,11.30
2019-02-02T16:36:39.785Z,13.77
2019-02-02T16:39:07.603Z,13.57
2019-02-02T16:41:34.894Z,12.03
2019-02-02T16:44:02.144Z,12.07
2019-02-02T16:46:29.435Z,11.30
2019-02-02T16:48:56.635Z,11.50
2019-02-02T16:51:23.898Z,11.33
2019-02-02T16:53:51.134Z,14.57
2019-02-02T16:56:18.514Z,19.20
2019-02-02T16:58:45.804Z,14.80
2019-02-02T17:01:13.070Z,17.30
2019-02-02T17:03:40.438Z,16.43
2019-02-02T17:06:07.708Z,20.40
2019-02-02T17:08:35.085Z,16.43
2019-02-02T17:11:02.482Z,15.20
2019-02-02T17:13:29.678Z,17.20
2019-02-02T17:15:56.931Z,15.50
2019-02-02T17:18:24.174Z,14.33
2019-02-02T17:20:51.533Z,14.67
2019-02-02T17:23:18.671Z,16.13
2019-02-02T17:25:45.840Z,20.50
2019-02-02T17:28:13.115Z,19.70
2019-02-02T17:30:40.510Z,20.37
2019-02-02T17:33:10.201Z,18.63
2019-02-02T17:35:37.485Z,20.00
2019-02-02T17:38:04.791Z,19.53
2019-02-02T17:40:32.013Z,21.60
2019-02-02T17:42:59.374Z,21.60
2019-02-02T17:45:26.723Z,20.43
2019-02-02T17:47:54.047Z,19.87
2019-02-02T17:50:22.286Z,21.43
2019-02-02T17:52:49.537Z,23.00
2019-02-02T17:55:16.876Z,24.03
2019-02-02T17:57:44.191Z,23.20
2019-02-02T18:00:22.077Z,23.47
2019-02-02T18:02:49.334Z,20.07
2019-02-02T18:05:16.507Z,20.17
2019-02-02T18:07:43.804Z,23.63
2019-02-02T18:10:12.174Z,25.23
2019-02-02T18:12:39.456Z,24.00
2019-02-02T18:15:08.146Z,21.77
2019-02-02T18:17:36.908Z,22.50
2019-02-02T18:20:06.267Z,24.97
2019-02-02T18:22:33.534Z,28.80
2019-02-02T18:25:00.841Z,28.83
2019-02-02T18:27:28.164Z,29.77
2019-02-02T18:29:55.434Z,27.57
2019-02-02T18:32:22.581Z,29.73
2019-02-02T18:34:51.239Z,29.73
2019-02-02T18:37:19.047Z,29.97
2019-02-02T18:39:46.312Z,35.27
2019-02-02T18:42:13.699Z,35.30
2019-02-02T18:44:40.945Z,33.37
2019-02-02T18:47:08.241Z,34.37
2019-02-02T18:49:35.613Z,36.60
2019-02-02T18:52:06.034Z,33.67
2019-02-02T18:54:32.331Z,32.97
2019-02-02T18:56:59.638Z,30.03
2019-02-02T18:59:26.954Z,34.63
2019-02-02T19:01:54.251Z,29.30
2019-02-02T19:04:21.571Z,29.10
2019-02-02T19:06:48.827Z,31.87
2019-02-02T19:09:16.133Z,32.07
2019-02-02T19:11:43.414Z,32.20
2019-02-02T19:14:10.653Z,30.83
2019-02-02T19:16:38.082Z,37.20
2019-02-02T19:19:05.426Z,39.70
2019-02-02T19:21:32.696Z,42.40
2019-02-02T19:23:59.840Z,40.03
2019-02-02T19:26:27.352Z,40.30
2019-02-02T19:28:54.735Z,39.57
2019-02-02T19:31:22.006Z,38.97
2019-02-02T19:33:49.166Z,33.90
2019-02-02T19:36:16.478Z,34.23
2019-02-02T19:38:43.770Z,34.07
2019-02-02T19:41:11.045Z,35.77
2019-02-02T19:43:38.323Z,37.70
2019-02-02T19:46:05.576Z,34.17
2019-02-02T19:48:32.835Z,45.67
2019-02-02T19:51:00.091Z,39.60
2019-02-02T19:53:27.435Z,43.43
2019-02-02T19:55:54.611Z,42.33
2019-02-02T19:58:21.811Z,46.27
2019-02-02T20:00:49.099Z,45.43
2019-02-02T20:03:16.411Z,39.67
2019-02-02T20:05:43.683Z,41.83
2019-02-02T20:08:10.962Z,41.37
2019-02-02T20:10:38.275Z,38.33
2019-02-02T20:13:05.436Z,43.50
2019-02-02T20:15:32.759Z,40.23
2019-02-02T20:18:09.653Z,47.83
2019-02-02T20:20:29.164Z,51.50
2019-02-02T20:22:56.607Z,53.87
2019-02-02T20:25:24.135Z,51.60
2019-02-02T20:27:51.575Z,49.57
2019-02-02T20:30:26.167Z,49.70
2019-02-02T20:32:53.463Z,47.43
2019-02-02T20:35:20.799Z,47.50
2019-02-02T20:37:48.098Z,43.77
2019-02-02T20:40:17.368Z,39.60
2019-02-02T20:42:44.530Z,47.47
2019-02-02T20:45:14.364Z,40.00
2019-02-02T20:47:41.613Z,40.70
2019-02-02T20:50:11.852Z,36.90
2019-02-02T20:52:47.166Z,42.73
2019-02-02T20:55:10.663Z,40.73
2019-02-02T20:57:37.919Z,50.27
2019-02-02T21:00:08.747Z,53.73
2019-02-02T21:02:36.065Z,52.10
2019-02-02T21:05:03.648Z,52.10
2019-02-02T21:07:30.848Z,47.13
2019-02-02T21:09:58.181Z,52.77
2019-02-02T21:12:25.469Z,51.37
2019-02-02T21:14:52.936Z,48.03
2019-02-02T21:17:20.287Z,49.43
2019-02-02T21:19:47.620Z,49.83
2019-02-02T21:22:14.935Z,49.50
2019-02-02T21:24:42.191Z,50.87
2019-02-02T21:27:09.587Z,52.57
2019-02-02T21:29:37.339Z,47.73
2019-02-02T21:32:04.693Z,53.33
2019-02-02T21:34:31.830Z,52.03
2019-02-02T21:36:59.129Z,48.10
2019-02-02T21:39:26.365Z,52.40
2019-02-02T21:41:53.701Z,55.67
2019-02-02T21:44:21.063Z,55.17
2019-02-02T21:46:48.306Z,54.90
2019-02-02T21:49:15.565Z,55.73
2019-02-02T21:51:42.821Z,51.83
2019-02-02T21:54:10.008Z,54.63
2019-02-02T21:56:37.351Z,57.67
2019-02-02T21:59:04.633Z,56.97
2019-02-02T22:01:32.186Z,54.00
2019-02-02T22:03:59.458Z,56.07
2019-02-02T22:06:26.734Z,52.50
2019-02-02T22:08:53.996Z,58.50
2019-02-02T22:11:21.347Z,58.07
2019-02-02T22:13:48.628Z,55.33
2019-02-02T22:16:15.892Z,57.10
2019-02-02T22:18:43.282Z,53.97
2019-02-02T22:21:10.951Z,55.57
2019-02-02T22:23:38.309Z,58.03
2019-02-02T22:26:05.594Z,60.33
2019-02-02T22:28:32.957Z,60.33
2019-02-02T22:31:00.257Z,64.30
2019-02-02T22:33:27.501Z,71.10
2019-02-02T22:35:54.754Z,68.20
2019-02-02T22:38:22.180Z,67.23
2019-02-02T22:40:49.471Z,67.70
2019-02-02T22:43:16.824Z,71.60
2019-02-02T22:45:44.089Z,63.33
2019-02-02T22:48:11.765Z,78.33
2019-02-02T22:50:39.005Z,85.67
2019-02-02T22:53:06.479Z,73.67
2019-02-02T22:55:33.705Z,77.63
2019-02-02T22:58:00.991Z,72.70
2019-02-02T23:01:01.799Z,64.67
2019-02-02T23:04:06.744Z,68.47
2019-02-02T23:07:21.578Z,70.33
2019-02-02T23:10:41.798Z,76.53
2019-02-02T23:13:35.037Z,82.33
2019-02-02T23:16:28.164Z,80.77
2019-02-02T23:18:56.098Z,84.03
2019-02-02T23:21:23.983Z,92.53
2019-02-02T23:23:51.467Z,93.73
2019-02-02T23:26:18.735Z,107.50
2019-02-02T23:28:46.095Z,89.27
2019-02-02T23:31:13.676Z,94.83
2019-02-02T23:33:41.147Z,92.93
2019-02-02T23:36:08.413Z,94.63
2019-02-02T23:38:35.885Z,93.00
2019-02-02T23:41:03.184Z,143.17
2019-02-02T23:43:30.427Z,111.37
2019-02-02T23:45:57.695Z,102.87
2019-02-02T23:48:25.503Z,113.37
2019-02-02T23:50:52.755Z,98.80
2019-02-02T23:53:20.103Z,121.93
2019-02-02T23:55:47.389Z,117.63
2019-02-02T23:58:14.749Z,115.77
